sensor_id;sensor_type;location;lat;lon;timestamp;P1;durP1;ratioP1;P2;durP2;ratioP2
7049;SDS011;22263;52.260;10.548;2024-02-14T00:01:32;0.50;;;0.50;;
7049;SDS011;22263;52.260;10.548;2024-02-14T00:04:03;0.60;;;0.60;;
7049;SDS011;22263;52.260;10.548;2024-02-14T00:06:34;0.50;;;0.50;;
7049;SDS011;22263;52.260;10.548;2024-02-14T00:09:06;0.60;;;0.60;;
7049;SDS011;22263;52.260;10.548;2024-02-14T00:11:37;0.60;;;0.60;;
7049;SDS011;22263;52.260;10.548;2024-02-14T00:14:10;0.60;;;0.60;;
7049;SDS011;22263;52.260;10.548;2024-02-14T00:16:40;0.73;;;0.73;;
7049;SDS011;22263;52.260;10.548;2024-02-14T00:19:10;0.60;;;0.60;;
7049;SDS011;22263;52.260;10.548;2024-02-14T00:21:41;0.70;;;0.70;;
7049;SDS011;22263;52.260;10.548;2024-02-14T00:24:11;0.70;;;0.70;;
7049;SDS011;22263;52.260;10.548;2024-02-14T00:26:43;0.68;;;0.68;;
7049;SDS011;22263;52.260;10.548;2024-02-14T00:29:15;0.70;;;0.70;;
7049;SDS011;22263;52.260;10.548;2024-02-14T00:31:45;0.60;;;0.60;;
7049;SDS011;22263;52.260;10.548;2024-02-14T00:34:15;0.60;;;0.60;;
7049;SDS011;22263;52.260;10.548;2024-02-14T00:36:46;0.60;;;0.60;;
7049;SDS011;22263;52.260;10.548;2024-02-14T00:39:16;0.60;;;0.60;;
7049;SDS011;22263;52.260;10.548;2024-02-14T00:41:46;0.65;;;0.65;;
7049;SDS011;22263;52.260;10.548;2024-02-14T00:44:22;0.60;;;0.60;;
7049;SDS011;22263;52.260;10.548;2024-02-14T00:46:55;0.60;;;0.60;;
7049;SDS011;22263;52.260;10.548;2024-02-14T00:49:26;0.60;;;0.60;;
7049;SDS011;22263;52.260;10.548;2024-02-14T00:51:57;0.60;;;0.60;;
7049;SDS011;22263;52.260;10.548;2024-02-14T00:54:28;0.65;;;0.65;;
7049;SDS011;22263;52.260;10.548;2024-02-14T00:56:58;0.50;;;0.50;;
7049;SDS011;22263;52.260;10.548;2024-02-14T00:59:31;0.70;;;0.70;;
7049;SDS011;22263;52.260;10.548;2024-02-14T01:02:01;0.70;;;0.70;;
7049;SDS011;22263;52.260;10.548;2024-02-14T01:04:31;0.60;;;0.60;;
7049;SDS011;22263;52.260;10.548;2024-02-14T01:07:03;0.50;;;0.50;;
7049;SDS011;22263;52.260;10.548;2024-02-14T01:09:33;0.60;;;0.60;;
7049;SDS011;22263;52.260;10.548;2024-02-14T01:12:03;0.70;;;0.70;;
7049;SDS011;22263;52.260;10.548;2024-02-14T01:14:36;0.60;;;0.60;;
7049;SDS011;22263;52.260;10.548;2024-02-14T01:17:06;0.50;;;0.50;;
7049;SDS011;22263;52.260;10.548;2024-02-14T01:19:37;0.60;;;0.60;;
7049;SDS011;22263;52.260;10.548;2024-02-14T01:22:07;0.70;;;0.70;;
7049;SDS011;22263;52.260;10.548;2024-02-14T01:24:37;0.60;;;0.60;;
7049;SDS011;22263;52.260;10.548;2024-02-14T01:27:10;0.70;;;0.70;;
7049;SDS011;22263;52.260;10.548;2024-02-14T01:29:42;0.57;;;0.57;;
7049;SDS011;22263;52.260;10.548;2024-02-14T01:32:13;0.50;;;0.50;;
7049;SDS011;22263;52.260;10.548;2024-02-14T01:34:44;0.60;;;0.60;;
7049;SDS011;22263;52.260;10.548;2024-02-14T01:37:14;0.68;;;0.68;;
7049;SDS011;22263;52.260;10.548;2024-02-14T01:39:45;0.65;;;0.65;;
7049;SDS011;22263;52.260;10.548;2024-02-14T01:42:15;0.60;;;0.60;;
7049;SDS011;22263;52.260;10.548;2024-02-14T01:44:47;0.70;;;0.70;;
7049;SDS011;22263;52.260;10.548;2024-02-14T01:47:18;0.70;;;0.70;;
7049;SDS011;22263;52.260;10.548;2024-02-14T01:49:48;0.60;;;0.60;;
7049;SDS011;22263;52.260;10.548;2024-02-14T01:52:20;0.60;;;0.60;;
7049;SDS011;22263;52.260;10.548;2024-02-14T01:54:50;0.73;;;0.73;;
7049;SDS011;22263;52.260;10.548;2024-02-14T01:57:22;0.50;;;0.50;;
7049;SDS011;22263;52.260;10.548;2024-02-14T01:59:55;0.70;;;0.70;;
7049;SDS011;22263;52.260;10.548;2024-02-14T02:02:37;0.68;;;0.68;;
7049;SDS011;22263;52.260;10.548;2024-02-14T02:05:13;0.65;;;0.65;;
7049;SDS011;22263;52.260;10.548;2024-02-14T02:07:43;0.50;;;0.50;;
7049;SDS011;22263;52.260;10.548;2024-02-14T02:10:15;0.68;;;0.68;;
7049;SDS011;22263;52.260;10.548;2024-02-14T02:12:48;0.60;;;0.60;;
7049;SDS011;22263;52.260;10.548;2024-02-14T02:15:21;0.68;;;0.68;;
7049;SDS011;22263;52.260;10.548;2024-02-14T02:17:51;0.60;;;0.60;;
7049;SDS011;22263;52.260;10.548;2024-02-14T02:20:21;0.60;;;0.60;;
7049;SDS011;22263;52.260;10.548;2024-02-14T02:22:54;0.60;;;0.60;;
7049;SDS011;22263;52.260;10.548;2024-02-14T02:25:24;0.60;;;0.60;;
7049;SDS011;22263;52.260;10.548;2024-02-14T02:27:54;0.70;;;0.70;;
7049;SDS011;22263;52.260;10.548;2024-02-14T02:30:25;0.70;;;0.70;;
7049;SDS011;22263;52.260;10.548;2024-02-14T02:32:58;0.50;;;0.50;;
7049;SDS011;22263;52.260;10.548;2024-02-14T02:35:29;0.60;;;0.60;;
7049;SDS011;22263;52.260;10.548;2024-02-14T02:38:01;0.60;;;0.60;;
7049;SDS011;22263;52.260;10.548;2024-02-14T02:40:31;0.70;;;0.70;;
7049;SDS011;22263;52.260;10.548;2024-02-14T02:43:01;0.68;;;0.68;;
7049;SDS011;22263;52.260;10.548;2024-02-14T02:45:32;0.50;;;0.50;;
7049;SDS011;22263;52.260;10.548;2024-02-14T02:48:02;0.60;;;0.60;;
7049;SDS011;22263;52.260;10.548;2024-02-14T02:50:34;0.60;;;0.60;;
7049;SDS011;22263;52.260;10.548;2024-02-14T02:53:07;0.60;;;0.60;;
7049;SDS011;22263;52.260;10.548;2024-02-14T02:55:37;0.60;;;0.60;;
7049;SDS011;22263;52.260;10.548;2024-02-14T02:58:07;0.60;;;0.60;;
7049;SDS011;22263;52.260;10.548;2024-02-14T03:00:37;0.60;;;0.60;;
7049;SDS011;22263;52.260;10.548;2024-02-14T03:03:07;0.70;;;0.70;;
7049;SDS011;22263;52.260;10.548;2024-02-14T03:05:38;0.60;;;0.60;;
7049;SDS011;22263;52.260;10.548;2024-02-14T03:08:11;0.70;;;0.70;;
7049;SDS011;22263;52.260;10.548;2024-02-14T03:10:42;0.70;;;0.70;;
7049;SDS011;22263;52.260;10.548;2024-02-14T03:13:12;0.70;;;0.70;;
7049;SDS011;22263;52.260;10.548;2024-02-14T03:15:44;0.50;;;0.50;;
7049;SDS011;22263;52.260;10.548;2024-02-14T03:18:15;0.60;;;0.60;;
7049;SDS011;22263;52.260;10.548;2024-02-14T03:20:45;0.65;;;0.65;;
7049;SDS011;22263;52.260;10.548;2024-02-14T03:23:19;0.68;;;0.68;;
7049;SDS011;22263;52.260;10.548;2024-02-14T03:25:50;0.70;;;0.70;;
7049;SDS011;22263;52.260;10.548;2024-02-14T03:28:21;0.70;;;0.70;;
7049;SDS011;22263;52.260;10.548;2024-02-14T03:30:51;0.60;;;0.60;;
7049;SDS011;22263;52.260;10.548;2024-02-14T03:33:24;0.55;;;0.55;;
7049;SDS011;22263;52.260;10.548;2024-02-14T03:35:56;0.60;;;0.60;;
7049;SDS011;22263;52.260;10.548;2024-02-14T03:38:29;0.60;;;0.60;;
7049;SDS011;22263;52.260;10.548;2024-02-14T03:40:59;0.80;;;0.80;;
7049;SDS011;22263;52.260;10.548;2024-02-14T03:43:29;0.52;;;0.52;;
7049;SDS011;22263;52.260;10.548;2024-02-14T03:45:59;0.60;;;0.60;;
7049;SDS011;22263;52.260;10.548;2024-02-14T03:48:29;0.70;;;0.70;;
7049;SDS011;22263;52.260;10.548;2024-02-14T03:50:59;0.60;;;0.60;;
7049;SDS011;22263;52.260;10.548;2024-02-14T03:53:32;0.70;;;0.70;;
7049;SDS011;22263;52.260;10.548;2024-02-14T03:56:05;0.60;;;0.60;;
7049;SDS011;22263;52.260;10.548;2024-02-14T03:58:36;0.70;;;0.70;;
7049;SDS011;22263;52.260;10.548;2024-02-14T04:01:06;0.70;;;0.70;;
7049;SDS011;22263;52.260;10.548;2024-02-14T04:03:37;0.50;;;0.50;;
7049;SDS011;22263;52.260;10.548;2024-02-14T04:06:06;0.60;;;0.60;;
7049;SDS011;22263;52.260;10.548;2024-02-14T04:08:40;0.70;;;0.70;;
7049;SDS011;22263;52.260;10.548;2024-02-14T04:11:10;0.60;;;0.60;;
7049;SDS011;22263;52.260;10.548;2024-02-14T04:13:41;0.60;;;0.60;;
7049;SDS011;22263;52.260;10.548;2024-02-14T04:16:11;0.60;;;0.60;;
7049;SDS011;22263;52.260;10.548;2024-02-14T04:18:42;0.60;;;0.60;;
7049;SDS011;22263;52.260;10.548;2024-02-14T04:21:12;0.80;;;0.80;;
7049;SDS011;22263;52.260;10.548;2024-02-14T04:23:45;0.50;;;0.50;;
7049;SDS011;22263;52.260;10.548;2024-02-14T04:26:18;0.57;;;0.57;;
7049;SDS011;22263;52.260;10.548;2024-02-14T04:28:49;0.52;;;0.52;;
7049;SDS011;22263;52.260;10.548;2024-02-14T04:31:19;0.80;;;0.80;;
7049;SDS011;22263;52.260;10.548;2024-02-14T04:33:50;0.50;;;0.50;;
7049;SDS011;22263;52.260;10.548;2024-02-14T04:36:20;0.70;;;0.70;;
7049;SDS011;22263;52.260;10.548;2024-02-14T04:38:52;0.70;;;0.70;;
7049;SDS011;22263;52.260;10.548;2024-02-14T04:41:23;0.68;;;0.68;;
7049;SDS011;22263;52.260;10.548;2024-02-14T04:43:52;0.60;;;0.60;;
7049;SDS011;22263;52.260;10.548;2024-02-14T04:46:22;0.60;;;0.60;;
7049;SDS011;22263;52.260;10.548;2024-02-14T04:48:52;0.70;;;0.70;;
7049;SDS011;22263;52.260;10.548;2024-02-14T04:51:23;0.60;;;0.60;;
7049;SDS011;22263;52.260;10.548;2024-02-14T04:53:55;0.60;;;0.60;;
7049;SDS011;22263;52.260;10.548;2024-02-14T04:56:27;0.60;;;0.60;;
7049;SDS011;22263;52.260;10.548;2024-02-14T04:58:57;0.70;;;0.70;;
7049;SDS011;22263;52.260;10.548;2024-02-14T05:01:28;0.70;;;0.70;;
7049;SDS011;22263;52.260;10.548;2024-02-14T05:03:58;0.60;;;0.60;;
7049;SDS011;22263;52.260;10.548;2024-02-14T05:06:30;0.50;;;0.50;;
7049;SDS011;22263;52.260;10.548;2024-02-14T05:09:03;0.50;;;0.50;;
7049;SDS011;22263;52.260;10.548;2024-02-14T05:11:33;0.60;;;0.60;;
7049;SDS011;22263;52.260;10.548;2024-02-14T05:14:03;0.60;;;0.60;;
7049;SDS011;22263;52.260;10.548;2024-02-14T05:16:33;0.52;;;0.52;;
7049;SDS011;22263;52.260;10.548;2024-02-14T05:19:04;0.60;;;0.60;;
7049;SDS011;22263;52.260;10.548;2024-02-14T05:21:34;0.50;;;0.50;;
7049;SDS011;22263;52.260;10.548;2024-02-14T05:24:07;0.60;;;0.60;;
7049;SDS011;22263;52.260;10.548;2024-02-14T05:26:37;0.63;;;0.63;;
7049;SDS011;22263;52.260;10.548;2024-02-14T05:29:08;0.70;;;0.70;;
7049;SDS011;22263;52.260;10.548;2024-02-14T05:31:44;0.60;;;0.60;;
7049;SDS011;22263;52.260;10.548;2024-02-14T05:34:15;0.60;;;0.60;;
7049;SDS011;22263;52.260;10.548;2024-02-14T05:36:46;0.75;;;0.75;;
7049;SDS011;22263;52.260;10.548;2024-02-14T05:39:18;0.70;;;0.70;;
7049;SDS011;22263;52.260;10.548;2024-02-14T05:41:49;0.60;;;0.60;;
7049;SDS011;22263;52.260;10.548;2024-02-14T05:44:21;0.65;;;0.65;;
7049;SDS011;22263;52.260;10.548;2024-02-14T05:46:54;0.60;;;0.60;;
7049;SDS011;22263;52.260;10.548;2024-02-14T05:49:24;0.80;;;0.80;;
7049;SDS011;22263;52.260;10.548;2024-02-14T05:51:54;0.70;;;0.70;;
7049;SDS011;22263;52.260;10.548;2024-02-14T05:54:26;0.55;;;0.55;;
7049;SDS011;22263;52.260;10.548;2024-02-14T05:56:57;0.70;;;0.70;;
7049;SDS011;22263;52.260;10.548;2024-02-14T05:59:28;0.60;;;0.60;;
7049;SDS011;22263;52.260;10.548;2024-02-14T06:01:59;0.68;;;0.68;;
7049;SDS011;22263;52.260;10.548;2024-02-14T06:04:29;0.60;;;0.60;;
7049;SDS011;22263;52.260;10.548;2024-02-14T06:06:59;0.60;;;0.60;;
7049;SDS011;22263;52.260;10.548;2024-02-14T06:09:35;0.60;;;0.60;;
7049;SDS011;22263;52.260;10.548;2024-02-14T06:12:06;0.50;;;0.50;;
7049;SDS011;22263;52.260;10.548;2024-02-14T06:14:36;0.60;;;0.60;;
7049;SDS011;22263;52.260;10.548;2024-02-14T06:17:06;0.60;;;0.60;;
7049;SDS011;22263;52.260;10.548;2024-02-14T06:19:36;0.80;;;0.80;;
7049;SDS011;22263;52.260;10.548;2024-02-14T06:22:07;0.70;;;0.70;;
7049;SDS011;22263;52.260;10.548;2024-02-14T06:24:40;0.60;;;0.60;;
7049;SDS011;22263;52.260;10.548;2024-02-14T06:27:10;0.80;;;0.80;;
7049;SDS011;22263;52.260;10.548;2024-02-14T06:29:41;0.52;;;0.52;;
7049;SDS011;22263;52.260;10.548;2024-02-14T06:32:12;0.60;;;0.60;;
7049;SDS011;22263;52.260;10.548;2024-02-14T06:34:43;0.60;;;0.60;;
7049;SDS011;22263;52.260;10.548;2024-02-14T06:37:13;0.60;;;0.60;;
7049;SDS011;22263;52.260;10.548;2024-02-14T06:39:46;0.70;;;0.70;;
7049;SDS011;22263;52.260;10.548;2024-02-14T06:42:16;0.55;;;0.55;;
7049;SDS011;22263;52.260;10.548;2024-02-14T06:44:48;0.60;;;0.60;;
7049;SDS011;22263;52.260;10.548;2024-02-14T06:47:18;0.70;;;0.70;;
7049;SDS011;22263;52.260;10.548;2024-02-14T06:49:54;0.60;;;0.60;;
7049;SDS011;22263;52.260;10.548;2024-02-14T06:52:26;0.60;;;0.60;;
7049;SDS011;22263;52.260;10.548;2024-02-14T06:54:59;0.50;;;0.50;;
7049;SDS011;22263;52.260;10.548;2024-02-14T06:57:30;0.68;;;0.68;;
7049;SDS011;22263;52.260;10.548;2024-02-14T07:00:00;0.60;;;0.60;;
7049;SDS011;22263;52.260;10.548;2024-02-14T07:02:33;0.50;;;0.50;;
7049;SDS011;22263;52.260;10.548;2024-02-14T07:05:03;0.50;;;0.50;;
7049;SDS011;22263;52.260;10.548;2024-02-14T07:07:34;0.60;;;0.60;;
7049;SDS011;22263;52.260;10.548;2024-02-14T07:10:08;0.60;;;0.60;;
7049;SDS011;22263;52.260;10.548;2024-02-14T07:12:39;0.63;;;0.63;;
7049;SDS011;22263;52.260;10.548;2024-02-14T07:15:10;0.50;;;0.50;;
7049;SDS011;22263;52.260;10.548;2024-02-14T07:17:40;0.60;;;0.60;;
7049;SDS011;22263;52.260;10.548;2024-02-14T07:20:11;0.70;;;0.70;;
7049;SDS011;22263;52.260;10.548;2024-02-14T07:22:43;0.60;;;0.60;;
7049;SDS011;22263;52.260;10.548;2024-02-14T07:25:22;0.60;;;0.60;;
7049;SDS011;22263;52.260;10.548;2024-02-14T07:27:52;0.60;;;0.60;;
7049;SDS011;22263;52.260;10.548;2024-02-14T07:30:25;0.60;;;0.60;;
7049;SDS011;22263;52.260;10.548;2024-02-14T07:32:55;0.63;;;0.63;;
7049;SDS011;22263;52.260;10.548;2024-02-14T07:35:26;0.57;;;0.57;;
7049;SDS011;22263;52.260;10.548;2024-02-14T07:37:56;0.65;;;0.65;;
7049;SDS011;22263;52.260;10.548;2024-02-14T07:40:33;0.60;;;0.60;;
7049;SDS011;22263;52.260;10.548;2024-02-14T07:43:08;0.70;;;0.70;;
7049;SDS011;22263;52.260;10.548;2024-02-14T07:45:38;0.50;;;0.50;;
7049;SDS011;22263;52.260;10.548;2024-02-14T07:48:08;0.70;;;0.70;;
7049;SDS011;22263;52.260;10.548;2024-02-14T07:50:39;0.60;;;0.60;;
7049;SDS011;22263;52.260;10.548;2024-02-14T07:53:09;0.60;;;0.60;;
7049;SDS011;22263;52.260;10.548;2024-02-14T07:55:42;0.50;;;0.50;;
7049;SDS011;22263;52.260;10.548;2024-02-14T07:58:12;0.50;;;0.50;;
7049;SDS011;22263;52.260;10.548;2024-02-14T08:00:42;0.60;;;0.60;;
7049;SDS011;22263;52.260;10.548;2024-02-14T08:03:12;0.70;;;0.70;;
7049;SDS011;22263;52.260;10.548;2024-02-14T08:05:42;0.60;;;0.60;;
7049;SDS011;22263;52.260;10.548;2024-02-14T08:08:12;0.60;;;0.60;;
7049;SDS011;22263;52.260;10.548;2024-02-14T08:10:47;0.70;;;0.70;;
7049;SDS011;22263;52.260;10.548;2024-02-14T08:13:18;0.60;;;0.60;;
7049;SDS011;22263;52.260;10.548;2024-02-14T08:15:48;0.70;;;0.70;;
7049;SDS011;22263;52.260;10.548;2024-02-14T08:18:19;0.57;;;0.57;;
7049;SDS011;22263;52.260;10.548;2024-02-14T08:20:50;0.60;;;0.60;;
7049;SDS011;22263;52.260;10.548;2024-02-14T08:23:20;0.60;;;0.60;;
7049;SDS011;22263;52.260;10.548;2024-02-14T08:25:57;0.50;;;0.50;;
7049;SDS011;22263;52.260;10.548;2024-02-14T08:28:27;0.80;;;0.80;;
7049;SDS011;22263;52.260;10.548;2024-02-14T08:30:57;0.60;;;0.60;;
7049;SDS011;22263;52.260;10.548;2024-02-14T08:33:27;0.70;;;0.70;;
7049;SDS011;22263;52.260;10.548;2024-02-14T08:35:57;0.70;;;0.70;;
7049;SDS011;22263;52.260;10.548;2024-02-14T08:38:27;0.60;;;0.60;;
7049;SDS011;22263;52.260;10.548;2024-02-14T08:41:01;0.50;;;0.50;;
7049;SDS011;22263;52.260;10.548;2024-02-14T08:43:32;0.55;;;0.55;;
7049;SDS011;22263;52.260;10.548;2024-02-14T08:46:02;0.50;;;0.50;;
7049;SDS011;22263;52.260;10.548;2024-02-14T08:48:33;0.50;;;0.50;;
7049;SDS011;22263;52.260;10.548;2024-02-14T08:51:07;0.60;;;0.60;;
7049;SDS011;22263;52.260;10.548;2024-02-14T08:53:39;0.60;;;0.60;;
7049;SDS011;22263;52.260;10.548;2024-02-14T08:56:15;0.50;;;0.50;;
7049;SDS011;22263;52.260;10.548;2024-02-14T08:58:45;0.60;;;0.60;;
7049;SDS011;22263;52.260;10.548;2024-02-14T09:01:15;0.50;;;0.50;;
7049;SDS011;22263;52.260;10.548;2024-02-14T09:03:47;0.50;;;0.50;;
7049;SDS011;22263;52.260;10.548;2024-02-14T09:06:18;0.60;;;0.60;;
7049;SDS011;22263;52.260;10.548;2024-02-14T09:08:48;0.50;;;0.50;;
7049;SDS011;22263;52.260;10.548;2024-02-14T09:11:22;0.70;;;0.70;;
7049;SDS011;22263;52.260;10.548;2024-02-14T09:13:52;0.70;;;0.70;;
7049;SDS011;22263;52.260;10.548;2024-02-14T09:16:32;0.60;;;0.60;;
7049;SDS011;22263;52.260;10.548;2024-02-14T09:19:03;0.60;;;0.60;;
7049;SDS011;22263;52.260;10.548;2024-02-14T09:21:34;0.60;;;0.60;;
7049;SDS011;22263;52.260;10.548;2024-02-14T09:24:05;0.70;;;0.70;;
7049;SDS011;22263;52.260;10.548;2024-02-14T09:26:38;0.60;;;0.60;;
7049;SDS011;22263;52.260;10.548;2024-02-14T09:29:09;0.50;;;0.50;;
7049;SDS011;22263;52.260;10.548;2024-02-14T09:31:41;0.60;;;0.60;;
7049;SDS011;22263;52.260;10.548;2024-02-14T09:34:14;0.60;;;0.60;;
7049;SDS011;22263;52.260;10.548;2024-02-14T09:36:47;0.57;;;0.57;;
7049;SDS011;22263;52.260;10.548;2024-02-14T09:39:19;0.52;;;0.52;;
7049;SDS011;22263;52.260;10.548;2024-02-14T09:41:52;0.40;;;0.40;;
7049;SDS011;22263;52.260;10.548;2024-02-14T09:44:28;0.60;;;0.60;;
7049;SDS011;22263;52.260;10.548;2024-02-14T09:46:58;0.52;;;0.52;;
7049;SDS011;22263;52.260;10.548;2024-02-14T09:49:31;0.60;;;0.60;;
7049;SDS011;22263;52.260;10.548;2024-02-14T09:52:02;0.60;;;0.60;;
7049;SDS011;22263;52.260;10.548;2024-02-14T09:54:33;0.70;;;0.70;;
7049;SDS011;22263;52.260;10.548;2024-02-14T09:57:08;0.50;;;0.50;;
7049;SDS011;22263;52.260;10.548;2024-02-14T09:59:40;0.50;;;0.50;;
7049;SDS011;22263;52.260;10.548;2024-02-14T10:02:10;0.43;;;0.43;;
7049;SDS011;22263;52.260;10.548;2024-02-14T10:11:08;0.50;;;0.50;;
7049;SDS011;22263;52.260;10.548;2024-02-14T10:13:40;0.70;;;0.70;;
7049;SDS011;22263;52.260;10.548;2024-02-14T10:16:12;0.50;;;0.50;;
7049;SDS011;22263;52.260;10.548;2024-02-14T10:18:46;0.50;;;0.50;;
7049;SDS011;22263;52.260;10.548;2024-02-14T10:21:17;0.40;;;0.40;;
7049;SDS011;22263;52.260;10.548;2024-02-14T10:23:50;0.40;;;0.40;;
7049;SDS011;22263;52.260;10.548;2024-02-14T10:26:20;0.43;;;0.43;;
7049;SDS011;22263;52.260;10.548;2024-02-14T10:28:53;0.60;;;0.60;;
7049;SDS011;22263;52.260;10.548;2024-02-14T10:31:28;0.50;;;0.50;;
7049;SDS011;22263;52.260;10.548;2024-02-14T10:33:58;0.50;;;0.50;;
7049;SDS011;22263;52.260;10.548;2024-02-14T10:36:33;0.50;;;0.50;;
7049;SDS011;22263;52.260;10.548;2024-02-14T10:39:09;0.45;;;0.45;;
7049;SDS011;22263;52.260;10.548;2024-02-14T10:41:42;0.50;;;0.50;;
7049;SDS011;22263;52.260;10.548;2024-02-14T10:44:16;0.43;;;0.43;;
7049;SDS011;22263;52.260;10.548;2024-02-14T10:46:46;0.50;;;0.50;;
7049;SDS011;22263;52.260;10.548;2024-02-14T10:49:18;0.47;;;0.47;;
7049;SDS011;22263;52.260;10.548;2024-02-14T10:51:51;0.45;;;0.45;;
7049;SDS011;22263;52.260;10.548;2024-02-14T10:54:24;0.50;;;0.50;;
7049;SDS011;22263;52.260;10.548;2024-02-14T10:56:56;0.50;;;0.50;;
7049;SDS011;22263;52.260;10.548;2024-02-14T10:59:36;0.50;;;0.50;;
7049;SDS011;22263;52.260;10.548;2024-02-14T11:02:12;0.40;;;0.40;;
7049;SDS011;22263;52.260;10.548;2024-02-14T11:04:42;0.50;;;0.50;;
7049;SDS011;22263;52.260;10.548;2024-02-14T11:07:13;0.50;;;0.50;;
7049;SDS011;22263;52.260;10.548;2024-02-14T11:09:46;0.40;;;0.40;;
7049;SDS011;22263;52.260;10.548;2024-02-14T11:12:22;0.40;;;0.40;;
7049;SDS011;22263;52.260;10.548;2024-02-14T11:14:59;0.50;;;0.50;;
7049;SDS011;22263;52.260;10.548;2024-02-14T11:17:33;0.40;;;0.40;;
7049;SDS011;22263;52.260;10.548;2024-02-14T11:20:11;0.40;;;0.40;;
7049;SDS011;22263;52.260;10.548;2024-02-14T11:22:50;0.40;;;0.40;;
7049;SDS011;22263;52.260;10.548;2024-02-14T11:25:23;0.40;;;0.40;;
7049;SDS011;22263;52.260;10.548;2024-02-14T11:27:59;0.50;;;0.50;;
7049;SDS011;22263;52.260;10.548;2024-02-14T11:30:34;0.38;;;0.38;;
7049;SDS011;22263;52.260;10.548;2024-02-14T11:33:14;0.40;;;0.40;;
7049;SDS011;22263;52.260;10.548;2024-02-14T11:35:47;0.40;;;0.40;;
7049;SDS011;22263;52.260;10.548;2024-02-14T11:38:17;0.40;;;0.40;;
7049;SDS011;22263;52.260;10.548;2024-02-14T11:40:47;0.40;;;0.40;;
7049;SDS011;22263;52.260;10.548;2024-02-14T11:43:21;0.35;;;0.35;;
7049;SDS011;22263;52.260;10.548;2024-02-14T11:45:54;0.40;;;0.40;;
7049;SDS011;22263;52.260;10.548;2024-02-14T11:48:24;0.40;;;0.40;;
7049;SDS011;22263;52.260;10.548;2024-02-14T11:50:55;0.40;;;0.40;;
7049;SDS011;22263;52.260;10.548;2024-02-14T11:53:25;0.40;;;0.40;;
7049;SDS011;22263;52.260;10.548;2024-02-14T11:55:55;0.50;;;0.50;;
7049;SDS011;22263;52.260;10.548;2024-02-14T11:58:25;0.40;;;0.40;;
7049;SDS011;22263;52.260;10.548;2024-02-14T12:00:58;0.40;;;0.40;;
7049;SDS011;22263;52.260;10.548;2024-02-14T12:03:28;0.40;;;0.40;;
7049;SDS011;22263;52.260;10.548;2024-02-14T12:05:58;0.30;;;0.30;;
7049;SDS011;22263;52.260;10.548;2024-02-14T12:08:30;0.40;;;0.40;;
7049;SDS011;22263;52.260;10.548;2024-02-14T12:11:01;0.40;;;0.40;;
7049;SDS011;22263;52.260;10.548;2024-02-14T12:13:34;0.40;;;0.40;;
7049;SDS011;22263;52.260;10.548;2024-02-14T12:16:13;0.40;;;0.40;;
7049;SDS011;22263;52.260;10.548;2024-02-14T12:18:43;0.40;;;0.40;;
7049;SDS011;22263;52.260;10.548;2024-02-14T12:21:13;0.40;;;0.40;;
7049;SDS011;22263;52.260;10.548;2024-02-14T12:23:43;0.40;;;0.40;;
7049;SDS011;22263;52.260;10.548;2024-02-14T12:26:13;0.45;;;0.45;;
7049;SDS011;22263;52.260;10.548;2024-02-14T12:28:46;0.38;;;0.38;;
7049;SDS011;22263;52.260;10.548;2024-02-14T12:31:26;0.35;;;0.35;;
7049;SDS011;22263;52.260;10.548;2024-02-14T12:33:58;0.40;;;0.40;;
7049;SDS011;22263;52.260;10.548;2024-02-14T12:36:29;0.40;;;0.40;;
7049;SDS011;22263;52.260;10.548;2024-02-14T12:38:59;0.40;;;0.40;;
7049;SDS011;22263;52.260;10.548;2024-02-14T12:41:30;0.47;;;0.47;;
7049;SDS011;22263;52.260;10.548;2024-02-14T12:44:02;0.40;;;0.40;;
7049;SDS011;22263;52.260;10.548;2024-02-14T12:46:35;0.40;;;0.40;;
7049;SDS011;22263;52.260;10.548;2024-02-14T12:49:06;0.40;;;0.40;;
7049;SDS011;22263;52.260;10.548;2024-02-14T12:51:38;0.50;;;0.50;;
7049;SDS011;22263;52.260;10.548;2024-02-14T12:54:11;0.40;;;0.40;;
7049;SDS011;22263;52.260;10.548;2024-02-14T12:56:42;0.40;;;0.40;;
7049;SDS011;22263;52.260;10.548;2024-02-14T12:59:14;0.40;;;0.40;;
7049;SDS011;22263;52.260;10.548;2024-02-14T13:01:50;0.50;;;0.50;;
7049;SDS011;22263;52.260;10.548;2024-02-14T13:04:20;0.40;;;0.40;;
7049;SDS011;22263;52.260;10.548;2024-02-14T13:06:53;0.40;;;0.40;;
7049;SDS011;22263;52.260;10.548;2024-02-14T13:09:23;0.40;;;0.40;;
7049;SDS011;22263;52.260;10.548;2024-02-14T13:11:53;0.40;;;0.40;;
7049;SDS011;22263;52.260;10.548;2024-02-14T13:14:24;0.40;;;0.40;;
7049;SDS011;22263;52.260;10.548;2024-02-14T13:16:58;0.40;;;0.40;;
7049;SDS011;22263;52.260;10.548;2024-02-14T13:19:28;0.50;;;0.50;;
7049;SDS011;22263;52.260;10.548;2024-02-14T13:21:58;0.40;;;0.40;;
7049;SDS011;22263;52.260;10.548;2024-02-14T13:24:29;0.50;;;0.50;;
7049;SDS011;22263;52.260;10.548;2024-02-14T13:26:59;0.32;;;0.32;;
7049;SDS011;22263;52.260;10.548;2024-02-14T13:29:29;0.40;;;0.40;;
7049;SDS011;22263;52.260;10.548;2024-02-14T13:32:01;0.50;;;0.50;;
7049;SDS011;22263;52.260;10.548;2024-02-14T13:34:34;0.40;;;0.40;;
7049;SDS011;22263;52.260;10.548;2024-02-14T13:37:05;0.40;;;0.40;;
7049;SDS011;22263;52.260;10.548;2024-02-14T13:39:36;0.40;;;0.40;;
7049;SDS011;22263;52.260;10.548;2024-02-14T13:42:06;0.40;;;0.40;;
7049;SDS011;22263;52.260;10.548;2024-02-14T13:44:37;0.40;;;0.40;;
7049;SDS011;22263;52.260;10.548;2024-02-14T13:47:09;0.40;;;0.40;;
7049;SDS011;22263;52.260;10.548;2024-02-14T13:49:39;0.40;;;0.40;;
7049;SDS011;22263;52.260;10.548;2024-02-14T13:52:10;0.30;;;0.30;;
7049;SDS011;22263;52.260;10.548;2024-02-14T13:54:42;0.40;;;0.40;;
7049;SDS011;22263;52.260;10.548;2024-02-14T13:57:12;0.40;;;0.40;;
7049;SDS011;22263;52.260;10.548;2024-02-14T13:59:46;0.50;;;0.50;;
7049;SDS011;22263;52.260;10.548;2024-02-14T14:02:21;0.40;;;0.40;;
7049;SDS011;22263;52.260;10.548;2024-02-14T14:04:52;0.40;;;0.40;;
7049;SDS011;22263;52.260;10.548;2024-02-14T14:07:22;0.40;;;0.40;;
7049;SDS011;22263;52.260;10.548;2024-02-14T14:09:53;0.40;;;0.40;;
7049;SDS011;22263;52.260;10.548;2024-02-14T14:12:25;0.35;;;0.35;;
7049;SDS011;22263;52.260;10.548;2024-02-14T14:14:55;0.32;;;0.32;;
7049;SDS011;22263;52.260;10.548;2024-02-14T14:17:28;0.50;;;0.50;;
7049;SDS011;22263;52.260;10.548;2024-02-14T14:19:58;0.40;;;0.40;;
7049;SDS011;22263;52.260;10.548;2024-02-14T14:22:30;0.40;;;0.40;;
7049;SDS011;22263;52.260;10.548;2024-02-14T14:25:00;0.40;;;0.40;;
7049;SDS011;22263;52.260;10.548;2024-02-14T14:27:31;0.50;;;0.50;;
7049;SDS011;22263;52.260;10.548;2024-02-14T14:30:01;0.40;;;0.40;;
7049;SDS011;22263;52.260;10.548;2024-02-14T14:32:34;0.40;;;0.40;;
7049;SDS011;22263;52.260;10.548;2024-02-14T14:35:05;0.40;;;0.40;;
7049;SDS011;22263;52.260;10.548;2024-02-14T14:37:38;0.32;;;0.32;;
7049;SDS011;22263;52.260;10.548;2024-02-14T14:40:09;0.40;;;0.40;;
7049;SDS011;22263;52.260;10.548;2024-02-14T14:42:39;0.40;;;0.40;;
7049;SDS011;22263;52.260;10.548;2024-02-14T14:45:09;0.40;;;0.40;;
7049;SDS011;22263;52.260;10.548;2024-02-14T14:47:42;0.40;;;0.40;;
7049;SDS011;22263;52.260;10.548;2024-02-14T14:50:12;0.50;;;0.50;;
7049;SDS011;22263;52.260;10.548;2024-02-14T14:52:44;0.40;;;0.40;;
7049;SDS011;22263;52.260;10.548;2024-02-14T14:55:15;0.40;;;0.40;;
7049;SDS011;22263;52.260;10.548;2024-02-14T14:57:44;0.40;;;0.40;;
7049;SDS011;22263;52.260;10.548;2024-02-14T15:00:15;0.35;;;0.35;;
7049;SDS011;22263;52.260;10.548;2024-02-14T15:02:48;0.40;;;0.40;;
7049;SDS011;22263;52.260;10.548;2024-02-14T15:05:18;0.40;;;0.40;;
7049;SDS011;22263;52.260;10.548;2024-02-14T15:07:48;0.40;;;0.40;;
7049;SDS011;22263;52.260;10.548;2024-02-14T15:10:18;0.40;;;0.40;;
7049;SDS011;22263;52.260;10.548;2024-02-14T15:12:49;0.40;;;0.40;;
7049;SDS011;22263;52.260;10.548;2024-02-14T15:15:19;0.43;;;0.43;;
7049;SDS011;22263;52.260;10.548;2024-02-14T15:17:53;0.40;;;0.40;;
7049;SDS011;22263;52.260;10.548;2024-02-14T15:20:23;0.40;;;0.40;;